Time;durP1;ratioP1;P1;durP2;ratioP2;P2;SDS_P1;SDS_P2;PMS_P1;PMS_P2;Temp;Humidity;BMP_temperature;BMP_pressure;BME280_temperature;BME280_humidity;BME280_pressure;Samples;Min_cycle;Max_cycle;Signal;HPM_P1;HPM_P2
2022/05/31 00:00:34;;;;;;;6.88;4.60;;;;;;;10.24;69.41;101333.28;5086053;28;20024;-68
2022/05/31 00:03:01;;;;;;;7.60;4.57;;;;;;;10.27;69.98;101348.63;5086913;28;20024;-68
2022/05/31 00:05:27;;;;;;;8.38;4.70;;;;;;;10.27;69.67;101338.25;5085844;28;20050;-68
2022/05/31 00:07:53;;;;;;;6.80;4.72;;;;;;;10.23;69.67;101336.78;5084852;28;20392;-68
2022/05/31 00:10:19;;;;;;;6.57;4.63;;;;;;;10.20;69.83;101337.00;5086792;28;20111;-68
2022/05/31 00:12:45;;;;;;;6.75;4.57;;;;;;;10.16;69.33;101341.59;5085451;28;20425;-67
2022/05/31 00:15:12;;;;;;;8.30;4.55;;;;;;;10.13;69.42;101335.78;5072591;28;20547;-68
2022/05/31 00:17:40;;;;;;;8.55;5.07;;;;;;;10.13;69.69;101325.41;5086885;28;20363;-67
2022/05/31 00:20:07;;;;;;;7.38;4.85;;;;;;;10.16;69.63;101325.22;5051261;28;20025;-67
2022/05/31 00:22:34;;;;;;;7.57;4.57;;;;;;;10.09;69.51;101330.84;5050809;28;20063;-68
2022/05/31 00:25:00;;;;;;;8.68;5.13;;;;;;;10.07;68.99;101326.69;5050234;28;20421;-68
2022/05/31 00:27:26;;;;;;;8.48;5.00;;;;;;;10.11;69.80;101323.78;5086456;28;20023;-67
2022/05/31 00:29:52;;;;;;;7.75;4.50;;;;;;;10.03;69.70;101326.06;5085496;28;20034;-68
2022/05/31 00:32:22;;;;;;;9.63;5.03;;;;;;;10.05;69.52;101329.41;5072064;28;20152;-66
2022/05/31 00:34:49;;;;;;;6.75;4.50;;;;;;;10.03;69.67;101326.06;5066776;28;20024;-67
2022/05/31 00:37:15;;;;;;;6.82;4.78;;;;;;;9.98;69.23;101323.00;5079042;28;20024;-68
2022/05/31 00:39:41;;;;;;;7.95;4.50;;;;;;;9.95;68.78;101315.44;5076383;28;20023;-68
2022/05/31 00:42:17;;;;;;;7.07;4.80;;;;;;;9.93;69.23;101319.91;5078730;28;20117;-68
2022/05/31 00:44:43;;;;;;;7.53;4.72;;;;;;;9.94;69.24;101316.38;5049650;28;20055;-68
2022/05/31 00:47:13;;;;;;;8.20;4.82;;;;;;;9.92;68.53;101320.84;5080441;28;20028;-68
2022/05/31 00:49:43;;;;;;;8.95;4.75;;;;;;;9.93;68.65;101324.25;5074001;28;20028;-68
2022/05/31 00:52:17;;;;;;;8.35;4.95;;;;;;;9.87;68.73;101320.34;5065402;28;20035;-67
2022/05/31 00:54:57;;;;;;;7.75;5.03;;;;;;;9.90;69.16;101320.09;5051025;28;20075;-68
2022/05/31 00:57:23;;;;;;;7.50;5.15;;;;;;;9.88;69.34;101316.81;5077919;28;20546;-68
2022/05/31 00:59:57;;;;;;;7.60;5.00;;;;;;;9.83;69.84;101319.72;5073785;28;20032;-68
2022/05/31 01:02:24;;;;;;;6.63;4.68;;;;;;;9.76;69.45;101308.13;5084184;28;20028;-67
2022/05/31 01:04:55;;;;;;;9.40;4.72;;;;;;;9.85;69.27;101311.81;5067088;28;20476;-68
2022/05/31 01:07:21;;;;;;;6.10;4.50;;;;;;;9.82;69.19;101317.25;5064183;28;20035;-68
2022/05/31 01:09:47;;;;;;;6.72;4.75;;;;;;;9.80;69.40;101313.91;5083067;28;20093;-68
2022/05/31 01:12:14;;;;;;;7.90;4.70;;;;;;;9.78;69.35;101315.78;5077738;28;20500;-68
2022/05/31 01:14:41;;;;;;;7.40;4.70;;;;;;;9.82;70.15;101314.66;5065144;28;20021;-68
2022/05/31 01:17:12;;;;;;;7.85;4.63;;;;;;;9.73;70.45;101312.69;5055037;28;20028;-67
2022/05/31 01:22:36;;;;;;;6.88;4.95;;;;;;;9.69;70.36;101312.09;5080675;28;20035;-66
2022/05/31 01:25:13;;;;;;;5.75;4.55;;;;;;;9.66;71.36;101321.84;5074746;28;20036;-68
2022/05/31 01:27:58;;;;;;;7.28;4.60;;;;;;;9.73;71.05;101323.88;5080737;28;20030;-67
2022/05/31 01:30:24;;;;;;;5.30;4.50;;;;;;;9.66;71.81;101316.66;5061073;28;20022;-68
2022/05/31 01:33:13;;;;;;;6.40;4.78;;;;;;;9.74;70.78;101329.88;5084037;28;20032;-67
2022/05/31 01:35:39;;;;;;;6.28;4.78;;;;;;;9.47;71.71;101294.63;5072234;28;20051;-68
2022/05/31 01:38:10;;;;;;;7.00;5.10;;;;;;;9.60;71.52;101311.91;5082434;28;20508;-67
2022/05/31 01:40:48;;;;;;;8.68;5.75;;;;;;;9.66;71.62;101316.66;5071923;28;20082;-68
2022/05/31 01:43:14;;;;;;;8.18;5.63;;;;;;;9.66;72.01;101316.66;5060211;28;20031;-68
2022/05/31 01:45:46;;;;;;;8.18;6.43;;;;;;;9.55;73.16;101300.09;5076117;28;20041;-68
2022/05/31 01:48:12;;;;;;;7.13;6.10;;;;;;;9.58;73.62;101305.06;5078883;28;20032;-67
2022/05/31 01:50:39;;;;;;;8.38;6.55;;;;;;;9.57;72.88;101299.97;5059894;28;20146;-68
2022/05/31 01:53:06;;;;;;;11.32;7.28;;;;;;;9.63;73.19;101303.91;5076893;28;20031;-67
2022/05/31 01:55:33;;;;;;;8.85;7.43;;;;;;;9.53;74.04;101311.50;5080325;28;20356;-67
2022/05/31 01:58:02;;;;;;;10.80;7.55;;;;;;;9.63;73.51;101306.50;5084519;28;20027;-67
2022/05/31 02:00:27;;;;;;;9.20;7.35;;;;;;;9.62;73.62;101304.84;5081908;28;20057;-68
2022/05/31 02:02:58;;;;;;;10.32;7.32;;;;;;;9.51;74.06;101298.66;5078265;28;20040;-67
2022/05/31 02:05:23;;;;;;;8.82;7.53;;;;;;;9.53;74.18;101308.91;5079383;28;20099;-68
2022/05/31 02:07:56;;;;;;;9.43;6.95;;;;;;;9.57;74.63;101308.56;5064151;28;20131;-68
2022/05/31 02:10:22;;;;;;;8.70;6.90;;;;;;;9.55;73.62;101305.28;5072320;28;20028;-67
2022/05/31 02:12:47;;;;;;;10.02;6.97;;;;;;;9.50;74.24;101312.53;5049670;28;20073;-68
2022/05/31 02:15:16;;;;;;;9.38;6.53;;;;;;;9.49;73.98;101297.94;5075115;28;20031;-67
2022/05/31 02:17:42;;;;;;;8.82;6.97;;;;;;;9.37;73.84;101296.19;5066113;28;20040;-68
2022/05/31 02:20:08;;;;;;;9.68;7.03;;;;;;;9.38;74.34;101292.69;5074775;28;20016;-67
2022/05/31 02:22:33;;;;;;;10.07;7.97;;;;;;;9.44;74.08;101301.78;5068818;28;20119;-67
2022/05/31 02:24:59;;;;;;;8.98;7.32;;;;;;;9.36;75.12;101294.56;5079946;28;20100;-67
2022/05/31 02:27:24;;;;;;;9.30;7.82;;;;;;;9.28;75.00;101286.47;5064837;28;20063;-67
2022/05/31 02:29:50;;;;;;;9.13;7.50;;;;;;;9.32;75.40;101304.28;5049924;28;20024;-67
2022/05/31 02:32:16;;;;;;;9.38;7.60;;;;;;;9.31;75.35;101299.22;5075195;28;20031;-68
2022/05/31 02:34:47;;;;;;;8.85;7.60;;;;;;;9.28;75.64;101299.41;5047017;28;20419;-68
2022/05/31 02:37:13;;;;;;;9.63;7.07;;;;;;;9.29;75.50;101303.69;5077032;28;20025;-67
2022/05/31 02:39:39;;;;;;;9.15;7.45;;;;;;;9.28;75.18;101292.47;5076233;28;20364;-66
2022/05/31 02:42:05;;;;;;;9.25;7.47;;;;;;;9.33;74.75;101294.75;5084324;28;20032;-68
2022/05/31 02:44:31;;;;;;;8.07;7.25;;;;;;;9.33;74.44;101281.81;5072400;28;20052;-68
2022/05/31 02:46:56;;;;;;;8.95;7.85;;;;;;;9.36;74.98;101293.72;5063710;28;20066;-68
2022/05/31 02:49:21;;;;;;;8.90;7.90;;;;;;;9.26;75.30;101289.16;5075814;28;20040;-67
2022/05/31 02:51:47;;;;;;;9.32;7.50;;;;;;;9.30;75.40;101279.44;5068141;28;20808;-67
2022/05/31 02:54:15;;;;;;;10.05;7.72;;;;;;;9.24;75.38;101285.03;5084920;28;20488;-69
2022/05/31 02:56:41;;;;;;;9.88;7.60;;;;;;;9.27;75.51;101285.66;5081136;28;20023;-67
2022/05/31 02:59:06;;;;;;;10.70;7.70;;;;;;;9.27;75.35;101290.00;5074498;28;20032;-67
2022/05/31 03:01:34;;;;;;;8.85;7.95;;;;;;;9.21;76.51;101274.88;5088364;28;20326;-67
2022/05/31 03:04:00;;;;;;;9.80;7.90;;;;;;;9.23;76.25;101278.19;5072659;28;20036;-68
2022/05/31 03:06:25;;;;;;;8.80;7.85;;;;;;;9.29;76.38;101285.56;5088339;28;20040;-67
2022/05/31 03:08:51;;;;;;;9.88;8.05;;;;;;;9.26;76.00;101272.81;5083219;28;20020;-67
2022/05/31 03:11:23;;;;;;;9.82;8.10;;;;;;;9.21;76.05;101272.31;5056695;28;20036;-67
2022/05/31 03:13:52;;;;;;;11.55;7.70;;;;;;;9.10;76.21;101282.56;5082907;28;20030;-67
2022/05/31 03:16:20;;;;;;;8.50;7.30;;;;;;;9.17;75.74;101294.13;5088100;28;20054;-67
2022/05/31 03:18:58;;;;;;;10.23;7.70;;;;;;;9.21;75.28;101285.25;5085456;28;20123;-68
2022/05/31 03:21:28;;;;;;;9.75;7.53;;;;;;;9.20;74.82;101278.41;5069215;28;20462;-68
2022/05/31 03:24:02;;;;;;;10.35;8.05;;;;;;;9.13;75.51;101287.53;5076513;28;20093;-68
2022/05/31 03:26:30;;;;;;;8.93;7.82;;;;;;;9.20;75.35;101279.25;5088404;28;20046;-67
2022/05/31 03:28:56;;;;;;;8.82;7.60;;;;;;;9.18;74.79;101275.94;5073354;28;20062;-67
2022/05/31 03:31:22;;;;;;;10.02;8.35;;;;;;;9.15;75.22;101275.31;5073073;28;20658;-67
2022/05/31 03:33:48;;;;;;;9.77;8.00;;;;;;;9.11;75.50;101279.03;5078053;28;20038;-68
2022/05/31 03:36:14;;;;;;;9.38;7.70;;;;;;;9.09;75.19;101270.56;5081729;28;20016;-68
2022/05/31 03:38:40;;;;;;;9.73;7.47;;;;;;;9.05;75.43;101275.09;5074034;28;20027;-67
2022/05/31 03:41:05;;;;;;;8.68;7.70;;;;;;;9.00;76.03;101272.84;5068583;28;20147;-67
2022/05/31 03:43:33;;;;;;;9.57;7.85;;;;;;;9.08;75.86;101276.66;5082601;28;20120;-67
2022/05/31 03:45:59;;;;;;;11.10;8.50;;;;;;;9.04;75.26;101257.94;5078161;28;20102;-67
2022/05/31 03:48:25;;;;;;;10.88;7.95;;;;;;;9.16;75.76;101277.78;5080182;28;20476;-67
2022/05/31 03:51:02;;;;;;;9.75;8.48;;;;;;;9.08;76.14;101280.06;5080352;28;20032;-67
2022/05/31 03:53:28;;;;;;;9.52;8.20;;;;;;;9.10;75.36;101277.38;5074188;28;20028;-68
2022/05/31 03:55:54;;;;;;;10.30;8.35;;;;;;;9.02;75.86;101281.31;5060822;28;20251;-67
2022/05/31 03:58:20;;;;;;;10.10;8.15;;;;;;;8.96;76.45;101281.75;5070128;28;20048;-66
2022/05/31 04:00:46;;;;;;;11.40;8.85;;;;;;;8.95;76.15;101267.16;5070036;28;20028;-67
2022/05/31 04:03:12;;;;;;;9.80;8.30;;;;;;;9.09;75.94;101280.91;5080638;28;20355;-67
2022/05/31 04:05:37;;;;;;;13.15;9.07;;;;;;;9.02;76.34;101276.16;5073695;28;20522;-68
2022/05/31 04:08:08;;;;;;;10.15;8.27;;;;;;;9.03;76.57;101282.97;5082878;28;20468;-67
2022/05/31 04:10:34;;;;;;;9.70;8.15;;;;;;;9.01;76.96;101289.19;5080625;28;20036;-66
2022/05/31 04:13:00;;;;;;;10.05;8.40;;;;;;;8.93;76.39;101266.41;5079451;28;20031;-67
2022/05/31 04:15:26;;;;;;;10.95;8.80;;;;;;;8.96;76.65;101267.97;5067844;28;20104;-67
2022/05/31 04:17:52;;;;;;;10.45;8.68;;;;;;;9.01;76.48;101274.50;5073650;28;20044;-68
2022/05/31 04:20:17;;;;;;;10.43;8.80;;;;;;;9.12;76.66;101273.78;5072945;28;20067;-68
2022/05/31 04:22:42;;;;;;;10.00;8.95;;;;;;;9.01;76.97;101274.50;5065058;28;20059;-67
2022/05/31 04:25:08;;;;;;;11.25;9.40;;;;;;;9.00;77.22;101272.84;5068643;28;20027;-67
2022/05/31 04:27:33;;;;;;;10.50;9.10;;;;;;;9.03;76.98;101275.22;5081847;28;20304;-67
2022/05/31 04:29:58;;;;;;;11.30;9.25;;;;;;;8.92;77.29;101269.94;5075540;28;20016;-67
2022/05/31 04:32:24;;;;;;;10.65;8.82;;;;;;;9.01;76.96;101274.50;5068449;28;20064;-68
2022/05/31 04:34:49;;;;;;;10.88;8.93;;;;;;;8.98;76.98;101274.69;5077550;28;20103;-68
2022/05/31 04:37:15;;;;;;;9.75;8.75;;;;;;;9.03;76.32;101276.97;5056630;28;20586;-67
2022/05/31 04:39:41;;;;;;;10.27;8.98;;;;;;;9.04;75.94;101274.28;5071807;28;20028;-68
2022/05/31 04:42:10;;;;;;;10.65;9.35;;;;;;;9.09;75.83;101286.09;5062981;28;20031;-68
2022/05/31 04:44:35;;;;;;;10.77;9.10;;;;;;;9.02;75.03;101259.81;5068367;28;20182;-67
2022/05/31 04:47:02;;;;;;;11.68;9.93;;;;;;;9.17;75.31;101276.03;5072540;28;20504;-69
2022/05/31 04:49:27;;;;;;;11.65;9.43;;;;;;;9.16;75.24;101269.19;5086710;28;20039;-67
2022/05/31 04:51:53;;;;;;;11.32;9.07;;;;;;;9.15;75.29;101275.31;5085497;28;20441;-67
2022/05/31 04:54:19;;;;;;;11.23;9.40;;;;;;;9.13;75.30;101272.00;5086284;28;20039;-67
2022/05/31 04:56:44;;;;;;;10.98;9.18;;;;;;;9.17;75.17;101276.03;5078577;28;20035;-67
2022/05/31 04:59:10;;;;;;;11.18;9.43;;;;;;;9.12;75.85;101275.50;5068776;28;20082;-67
2022/05/31 05:01:37;;;;;;;10.65;9.55;;;;;;;9.08;75.65;101268.91;5067179;28;20024;-67
2022/05/31 05:04:03;;;;;;;10.23;9.13;;;;;;;9.20;75.31;101273.25;5075762;28;20024;-67
2022/05/31 05:06:29;;;;;;;10.55;9.45;;;;;;;9.15;75.85;101270.13;5083475;28;20407;-67
2022/05/31 05:08:55;;;;;;;11.40;9.52;;;;;;;9.07;75.65;101267.25;5072490;28;20066;-67
2022/05/31 05:11:22;;;;;;;12.48;9.90;;;;;;;9.24;75.13;101274.69;5086495;28;20032;-67
2022/05/31 05:13:49;;;;;;;12.77;9.73;;;;;;;9.27;75.17;101274.47;5083801;28;20056;-67
2022/05/31 05:16:16;;;;;;;12.18;9.82;;;;;;;9.29;75.49;101272.63;5067307;28;20125;-68
2022/05/31 05:18:41;;;;;;;11.32;9.60;;;;;;;9.32;75.12;101267.22;5078756;28;20077;-68
2022/05/31 05:21:09;;;;;;;11.25;10.05;;;;;;;9.35;75.56;101273.94;5066429;28;20415;-68
2022/05/31 05:23:35;;;;;;;10.73;9.60;;;;;;;9.40;75.49;101264.09;5078634;28;20039;-70
2022/05/31 05:26:01;;;;;;;10.05;8.90;;;;;;;9.34;75.71;101260.16;5080405;28;20028;-67
2022/05/31 05:31:30;;;;;;;10.65;9.38;;;;;;;9.40;75.95;101249.38;5070470;28;20138;-67
2022/05/31 05:33:57;;;;;;;10.80;9.65;;;;;;;9.49;75.19;101266.88;5082250;28;20032;-68
2022/05/31 05:36:24;;;;;;;11.90;9.82;;;;;;;9.50;75.31;101260.75;5083024;28;20039;-67
2022/05/31 05:38:50;;;;;;;10.38;9.15;;;;;;;9.44;75.36;101256.00;5049026;28;20035;-69
2022/05/31 05:41:17;;;;;;;11.13;9.85;;;;;;;9.50;76.47;101270.28;5066165;28;20016;-68
2022/05/31 05:43:43;;;;;;;11.82;10.05;;;;;;;9.57;75.33;101261.13;5081425;28;20035;-68
2022/05/31 05:46:23;;;;;;;13.05;10.10;;;;;;;9.61;75.50;101272.94;5059646;28;20043;-67
2022/05/31 05:48:49;;;;;;;14.25;10.80;;;;;;;9.62;76.31;101266.00;5060175;28;20544;-68
2022/05/31 05:51:18;;;;;;;11.70;10.35;;;;;;;9.64;76.44;101271.91;5067678;28;20112;-68
2022/05/31 05:53:43;;;;;;;12.02;10.68;;;;;;;9.69;76.30;101269.81;5074943;28;20036;-69
2022/05/31 05:56:11;;;;;;;12.07;10.45;;;;;;;9.73;76.42;101266.06;5074489;28;20012;-68
2022/05/31 05:58:37;;;;;;;14.57;10.73;;;;;;;9.77;75.86;101267.50;5055406;28;20442;-67
2022/05/31 06:01:04;;;;;;;14.48;11.13;;;;;;;9.89;75.16;101273.59;5060985;28;20027;-68
2022/05/31 06:04:04;;;;;;;12.05;10.75;;;;;;;9.89;75.53;101271.81;5055814;28;20028;-67
2022/05/31 06:06:32;;;;;;;12.10;10.40;;;;;;;9.98;75.91;101260.00;5074254;28;20058;-68
2022/05/31 06:09:08;;;;;;;12.20;10.95;;;;;;;10.02;76.07;101256.22;5082268;28;20038;-70
2022/05/31 06:11:41;;;;;;;13.75;11.20;;;;;;;10.05;76.00;101256.00;5085460;28;20470;-68
2022/05/31 06:14:12;;;;;;;12.30;11.00;;;;;;;10.11;76.22;101261.56;5065994;28;20032;-68
2022/05/31 06:16:41;;;;;;;13.75;11.68;;;;;;;10.14;75.61;101264.84;5076404;28;20032;-68
2022/05/31 06:19:15;;;;;;;12.63;11.30;;;;;;;10.24;75.08;101263.28;5081865;28;20055;-68
2022/05/31 06:21:43;;;;;;;13.30;11.90;;;;;;;10.32;75.23;101264.41;5074815;28;20104;-67
2022/05/31 06:24:09;;;;;;;13.35;12.05;;;;;;;10.32;75.37;101269.59;5079553;28;20357;-68
2022/05/31 06:26:34;;;;;;;13.30;11.77;;;;;;;10.35;75.00;101263.34;5085069;28;20499;-70
2022/05/31 06:28:59;;;;;;;14.07;12.45;;;;;;;10.43;74.54;101261.00;5080984;28;20035;-67
2022/05/31 06:31:25;;;;;;;17.02;12.57;;;;;;;10.44;74.78;101259.25;5092113;28;20419;-68
2022/05/31 06:33:51;;;;;;;14.77;12.70;;;;;;;10.42;74.31;101259.34;5087621;28;20035;-68
2022/05/31 06:36:16;;;;;;;13.68;12.20;;;;;;;10.55;74.25;101260.09;5068746;28;20024;-68
2022/05/31 06:38:42;;;;;;;14.15;12.00;;;;;;;10.61;74.34;101258.81;5079384;28;20028;-68
2022/05/31 06:41:07;;;;;;;14.38;12.52;;;;;;;10.68;75.11;101264.38;5060211;28;20111;-67
2022/05/31 06:43:34;;;;;;;13.63;12.20;;;;;;;10.67;74.31;101263.56;5072242;28;20375;-70
2022/05/31 06:46:07;;;;;;;15.23;12.30;;;;;;;10.72;75.12;101265.78;5087291;28;20048;-67
2022/05/31 06:48:33;;;;;;;13.55;12.15;;;;;;;10.80;74.33;101263.44;5078894;28;20043;-67
2022/05/31 06:51:03;;;;;;;13.50;12.10;;;;;;;10.80;73.41;101258.25;5090482;28;20028;-68
2022/05/31 06:58:56;;;;;;;12.93;11.25;;;;;;;10.99;72.14;101258.50;5086081;28;20032;-67
2022/05/31 07:01:30;;;;;;;13.85;11.65;;;;;;;11.09;72.56;101254.25;5083314;28;20024;-68
2022/05/31 07:03:55;;;;;;;13.10;11.38;;;;;;;11.08;72.61;101255.22;5077313;28;20024;-67
2022/05/31 07:06:20;;;;;;;13.73;11.65;;;;;;;11.13;71.97;101255.69;5081216;28;20353;-68
2022/05/31 07:08:46;;;;;;;14.50;10.88;;;;;;;11.17;71.19;101257.09;5072861;28;21126;-69
2022/05/31 07:11:11;;;;;;;11.73;10.52;;;;;;;11.17;71.03;101256.25;5091414;28;20050;-67
2022/05/31 07:13:37;;;;;;;12.23;10.07;;;;;;;11.16;70.88;101250.25;5089744;28;20375;-68
2022/05/31 07:16:02;;;;;;;12.32;9.88;;;;;;;11.29;70.61;101252.72;5084326;28;20423;-68
2022/05/31 07:18:28;;;;;;;12.52;10.20;;;;;;;11.39;70.52;101255.41;5090865;28;20625;-67
2022/05/31 07:20:53;;;;;;;13.02;10.90;;;;;;;11.42;70.68;101255.19;5089250;28;20536;-67
2022/05/31 07:23:19;;;;;;;13.15;10.02;;;;;;;11.50;69.88;101252.81;5081432;28;20036;-68
2022/05/31 07:25:45;;;;;;;12.77;10.50;;;;;;;11.60;70.03;101248.56;5086647;28;20031;-68
2022/05/31 07:28:10;;;;;;;12.10;9.70;;;;;;;11.63;69.57;101253.50;5090981;28;20356;-68
2022/05/31 07:30:35;;;;;;;12.30;9.63;;;;;;;11.64;69.45;101234.38;5089664;28;20032;-68
2022/05/31 07:33:01;;;;;;;12.05;10.30;;;;;;;11.75;69.15;101250.88;5067675;28;20398;-69
2022/05/31 07:35:27;;;;;;;13.52;10.15;;;;;;;11.79;68.96;101247.09;5067767;28;20134;-69
2022/05/31 07:37:53;;;;;;;11.70;9.75;;;;;;;11.83;68.18;101238.13;5069324;28;20406;-67
2022/05/31 07:40:18;;;;;;;11.57;9.82;;;;;;;11.99;68.07;101248.94;5085864;28;20031;-68
2022/05/31 07:42:43;;;;;;;13.65;10.82;;;;;;;12.12;68.50;101248.78;5056250;28;20024;-68
2022/05/31 07:45:11;;;;;;;11.32;9.88;;;;;;;12.25;68.25;101243.41;5071110;28;20055;-68
2022/05/31 07:47:36;;;;;;;12.02;9.95;;;;;;;12.23;65.73;101241.75;5064342;28;20098;-67
2022/05/31 07:50:02;;;;;;;11.60;10.13;;;;;;;12.36;66.90;101245.94;5079713;28;20464;-68
2022/05/31 07:52:27;;;;;;;14.30;10.10;;;;;;;12.43;66.09;101236.66;5082804;28;20502;-67
2022/05/31 07:54:53;;;;;;;12.38;10.50;;;;;;;12.44;66.33;101233.13;5085654;28;20107;-67
2022/05/31 08:00:03;;;;;;;13.70;10.50;;;;;;;12.62;65.04;101236.81;5079422;28;20054;-68
2022/05/31 08:02:29;;;;;;;11.73;10.52;;;;;;;12.70;63.92;101239.59;5068631;28;20460;-67
2022/05/31 08:04:54;;;;;;;10.80;9.48;;;;;;;12.88;63.58;101233.78;5063050;28;20039;-68
2022/05/31 08:07:19;;;;;;;10.63;9.40;;;;;;;12.95;63.09;101238.31;5066595;28;20036;-67
2022/05/31 08:09:45;;;;;;;12.25;9.98;;;;;;;13.01;63.36;101235.19;5087730;28;20421;-68
2022/05/31 08:12:12;;;;;;;12.00;9.77;;;;;;;13.06;62.09;101232.22;5084549;28;20555;-68
2022/05/31 08:14:37;;;;;;;12.80;9.48;;;;;;;13.16;62.82;101227.88;5076430;28;20048;-68
2022/05/31 08:17:03;;;;;;;11.25;9.57;;;;;;;13.32;63.00;101234.41;5066957;28;20029;-72
2022/05/31 08:19:30;;;;;;;10.45;9.25;;;;;;;13.43;62.33;101227.28;5081500;28;20063;-67
2022/05/31 08:21:56;;;;;;;10.68;9.32;;;;;;;13.45;60.67;101224.53;5080838;28;20032;-68
2022/05/31 08:24:22;;;;;;;11.95;9.43;;;;;;;13.50;59.33;101222.38;5071490;28;20703;-67
2022/05/31 08:26:48;;;;;;;12.55;9.90;;;;;;;13.69;60.66;101227.59;5058739;28;20115;-67
2022/05/31 08:29:14;;;;;;;10.88;9.10;;;;;;;13.71;60.15;101210.06;5081315;28;20017;-70
2022/05/31 08:31:40;;;;;;;10.68;8.63;;;;;;;13.77;59.23;101214.72;5087239;28;20111;-67
2022/05/31 08:34:07;;;;;;;10.85;8.52;;;;;;;14.01;59.65;101223.94;5084183;28;20492;-68
2022/05/31 08:36:32;;;;;;;11.43;8.25;;;;;;;13.97;57.84;101215.53;5085648;28;20459;-67
2022/05/31 08:38:58;;;;;;;10.77;8.15;;;;;;;13.99;58.41;101220.59;5081037;28;20344;-68
2022/05/31 08:41:32;;;;;;;10.57;7.05;;;;;;;14.07;57.63;101220.75;5076255;28;20046;-67
2022/05/31 08:44:19;;;;;;;9.07;7.00;;;;;;;14.26;57.58;101225.94;5057853;28;20071;-70
2022/05/31 08:46:54;;;;;;;8.50;6.47;;;;;;;14.38;55.83;101208.34;5079179;28;20392;-67
2022/05/31 08:52:42;;;;;;;9.77;6.10;;;;;;;14.77;57.23;101209.09;5086672;28;20075;-67
2022/05/31 08:58:08;;;;;;;8.95;5.63;;;;;;;15.20;53.99;101212.09;5086293;28;20318;-67
2022/05/31 09:00:39;;;;;;;7.80;4.78;;;;;;;15.16;52.16;101213.34;5070374;28;20106;-68
2022/05/31 09:03:49;;;;;;;7.65;5.13;;;;;;;15.26;54.77;101209.72;5068630;28;20121;-68
2022/05/31 09:06:40;;;;;;;7.05;4.72;;;;;;;15.45;52.18;101213.19;5003986;28;20056;-67
2022/05/31 09:09:30;;;;;;;7.95;4.97;;;;;;;15.48;52.43;101208.47;4999490;28;20069;-68
2022/05/31 09:12:26;;;;;;;8.27;4.80;;;;;;;15.78;53.78;101204.72;5002478;28;20117;-67
2022/05/31 09:15:05;;;;;;;7.40;5.35;;;;;;;15.97;52.03;101208.16;4995645;28;20145;-68
2022/05/31 09:17:35;;;;;;;7.07;4.90;;;;;;;15.88;50.63;101208.06;4993721;28;20175;-68
2022/05/31 09:20:05;;;;;;;7.38;4.80;;;;;;;15.97;49.47;101208.97;5003629;28;20128;-68
2022/05/31 09:22:31;;;;;;;8.70;5.03;;;;;;;16.01;50.87;101204.28;5000195;28;20187;-68
2022/05/31 09:24:57;;;;;;;8.23;5.30;;;;;;;16.18;49.70;101206.03;4992661;28;20538;-67
2022/05/31 09:27:24;;;;;;;8.40;5.38;;;;;;;16.30;49.22;101215.28;5001527;28;20056;-68
2022/05/31 09:30:15;;;;;;;9.20;5.63;;;;;;;16.41;50.82;101212.41;4983612;28;20161;-68
2022/05/31 09:32:57;;;;;;;8.60;4.88;;;;;;;16.57;48.19;101221.34;4998915;28;20064;-68
2022/05/31 09:35:50;;;;;;;7.75;5.47;;;;;;;16.57;50.37;101210.84;4992861;28;20030;-67
2022/05/31 09:38:49;;;;;;;9.85;6.30;;;;;;;16.43;50.31;101213.06;5001479;28;20137;-71
2022/05/31 09:41:15;;;;;;;7.43;5.97;;;;;;;16.29;49.48;101208.41;4997683;28;20577;-68
2022/05/31 09:44:09;;;;;;;7.65;5.80;;;;;;;16.43;50.50;101215.69;5052509;28;20127;-67
2022/05/31 09:46:54;;;;;;;6.90;5.43;;;;;;;16.59;50.28;101219.41;5078972;28;20040;-69
2022/05/31 09:49:39;;;;;;;8.68;6.55;;;;;;;16.61;50.26;101210.41;5072630;28;20070;-67
2022/05/31 09:52:36;;;;;;;8.88;5.80;;;;;;;16.70;50.54;101206.03;5062903;28;20416;-68
2022/05/31 09:58:19;;;;;;;7.95;6.03;;;;;;;16.62;48.98;101198.13;5086448;28;20774;-70
2022/05/31 10:01:20;;;;;;;7.68;5.85;;;;;;;16.68;49.67;101213.22;5069227;28;20453;-68
2022/05/31 10:03:52;;;;;;;9.13;5.93;;;;;;;16.82;48.32;101212.69;5081698;28;20039;-68
2022/05/31 10:06:30;;;;;;;6.70;4.57;;;;;;;16.85;47.62;101209.72;5084786;28;20379;-68
2022/05/31 10:08:56;;;;;;;7.87;5.30;;;;;;;16.75;47.09;101206.44;5080363;28;20059;-68
2022/05/31 10:11:26;;;;;;;7.53;5.32;;;;;;;16.93;47.76;101195.88;5075268;28;20119;-68
2022/05/31 10:13:55;;;;;;;9.65;5.40;;;;;;;17.08;50.25;101198.69;5081218;28;20999;-67
2022/05/31 10:16:26;;;;;;;6.88;4.43;;;;;;;17.07;48.31;101191.81;5076874;28;20032;-67
2022/05/31 10:18:57;;;;;;;7.78;4.15;;;;;;;17.11;47.36;101190.53;5064374;28;20439;-68
2022/05/31 10:21:40;;;;;;;7.82;4.72;;;;;;;17.22;47.57;101205.97;5054359;28;20132;-67
2022/05/31 10:24:20;;;;;;;7.55;4.22;;;;;;;17.33;46.81;101192.56;5082367;28;20116;-68
2022/05/31 10:27:22;;;;;;;5.22;3.90;;;;;;;17.52;48.25;101189.63;5083811;28;20488;-69
2022/05/31 10:30:02;;;;;;;7.50;4.07;;;;;;;17.42;46.68;101175.84;5065396;28;20472;-68
2022/05/31 10:32:33;;;;;;;6.93;4.18;;;;;;;17.55;46.81;101185.03;5077172;28;20479;-69
2022/05/31 10:35:21;;;;;;;7.03;4.50;;;;;;;17.55;45.04;101196.38;5081053;28;20055;-69
2022/05/31 10:37:50;;;;;;;;;;;;;;;17.82;48.42;101192.66;5069878;28;20103;-70
2022/05/31 10:40:22;;;;;;;7.93;4.20;;;;;;;17.96;46.18;101197.25;5061411;28;19908;-69
2022/05/31 10:42:54;;;;;;;9.05;5.15;;;;;;;17.97;43.82;101190.19;5066519;28;20107;-68
2022/05/31 10:45:23;;;;;;;8.48;5.30;;;;;;;18.10;44.41;101185.25;5082393;28;20550;-70
2022/05/31 10:47:48;;;;;;;8.43;4.50;;;;;;;18.23;42.58;101192.63;5085501;28;20035;-68
2022/05/31 10:50:14;;;;;;;7.60;4.85;;;;;;;18.21;44.72;101186.72;5068690;28;20038;-69
2022/05/31 10:52:48;;;;;;;6.68;4.85;;;;;;;17.99;44.10;101194.28;5082772;28;20104;-69
2022/05/31 10:55:28;;;;;;;8.45;4.65;;;;;;;18.26;44.97;101187.06;5076828;28;20519;-69
2022/05/31 10:58:16;;;;;;;6.35;4.68;;;;;;;18.53;46.41;101178.81;5074588;28;20084;-68
2022/05/31 11:00:52;;;;;;;6.90;4.85;;;;;;;18.56;45.14;101186.31;5082090;28;20024;-70
2022/05/31 11:03:40;;;;;;;7.63;4.90;;;;;;;18.51;44.81;101167.63;5084910;28;20035;-69
2022/05/31 11:06:40;;;;;;;6.35;4.68;;;;;;;18.64;45.26;101182.88;4976608;28;20067;-69
2022/05/31 11:12:18;;;;;;;7.97;4.60;;;;;;;18.44;44.48;101171.91;4980697;28;20046;-69
2022/05/31 11:15:05;;;;;;;6.35;4.35;;;;;;;18.37;43.48;101189.34;4973830;28;20038;-71
2022/05/31 11:17:39;;;;;;;8.15;4.43;;;;;;;18.42;44.51;101184.41;4979470;28;20051;-69
2022/05/31 11:20:22;;;;;;;8.02;4.70;;;;;;;18.46;44.03;101169.94;4986057;28;20423;-70
2022/05/31 11:23:07;;;;;;;6.25;4.45;;;;;;;18.40;42.82;101181.09;4982190;28;20605;-69
2022/05/31 11:26:10;;;;;;;5.60;4.18;;;;;;;18.58;44.14;101183.56;4984704;28;20044;-71
2022/05/31 11:29:02;;;;;;;8.20;4.25;;;;;;;18.39;42.01;101174.22;4977246;28;20109;-69
2022/05/31 11:31:45;;;;;;;6.68;4.65;;;;;;;18.35;42.65;101178.19;4985526;28;20562;-69
2022/05/31 11:34:13;;;;;;;6.95;4.80;;;;;;;18.51;41.88;101170.25;4981509;28;20105;-69
2022/05/31 11:37:07;;;;;;;7.45;4.50;;;;;;;18.59;41.92;101174.69;4963315;28;20498;-68
2022/05/31 11:39:44;;;;;;;6.70;4.25;;;;;;;18.72;42.34;101176.78;4985089;28;20046;-69
2022/05/31 11:42:40;;;;;;;8.10;4.78;;;;;;;18.90;42.88;101177.38;4993130;28;20046;-69
2022/05/31 11:45:43;;;;;;;8.07;4.30;;;;;;;18.97;42.15;101167.00;5066855;28;20048;-69
2022/05/31 11:48:18;;;;;;;7.35;4.80;;;;;;;18.93;40.42;101173.59;5075733;28;20040;-69
2022/05/31 11:51:08;;;;;;;6.47;4.13;;;;;;;19.22;42.15;101160.63;5081959;28;20441;-69
2022/05/31 11:54:17;;;;;;;6.97;4.05;;;;;;;19.36;42.46;101157.25;5072381;28;20051;-69
2022/05/31 11:57:01;;;;;;;7.20;4.85;;;;;;;19.08;40.25;101164.78;5072207;28;20028;-69
2022/05/31 11:59:40;;;;;;;6.85;4.40;;;;;;;19.43;40.55;101170.50;5086467;28;20464;-69
2022/05/31 12:02:27;;;;;;;7.15;4.63;;;;;;;19.36;38.67;101167.75;5086141;28;20020;-70
2022/05/31 12:05:07;;;;;;;7.68;4.80;;;;;;;19.47;39.31;101166.53;5087488;28;20031;-69
2022/05/31 12:07:58;;;;;;;7.25;5.22;;;;;;;19.57;40.41;101158.44;5073909;28;20034;-69